Time;durP1;ratioP1;P1;durP2;ratioP2;P2;SDS_P1;SDS_P2;PMS_P1;PMS_P2;Temp;Humidity;BMP_temperature;BMP_pressure;BME280_temperature;BME280_humidity;BME280_pressure;Samples;Min_cycle;Max_cycle;Signal;HPM_P1;HPM_P2
2022/03/23 00:00:21;;;;;;;40.03;36.05;;;;;;;;;;5051994;28;20037;-92
2022/03/23 00:03:03;;;;;;;41.17;36.85;;;;;;;;;;5029855;28;20072;-92
2022/03/23 00:05:29;;;;;;;42.08;37.75;;;;;;;;;;5044333;28;20053;-93
2022/03/23 00:07:56;;;;;;;40.03;35.88;;;;;;;;;;5034075;28;20049;-93
2022/03/23 00:10:23;;;;;;;41.50;37.40;;;;;;;;;;5034170;28;20478;-93
2022/03/23 00:12:51;;;;;;;40.80;36.78;;;;;;;;;;5024557;28;20098;-92
2022/03/23 00:15:17;;;;;;;40.35;36.15;;;;;;;;;;5035979;28;20053;-92
2022/03/23 00:17:44;;;;;;;42.38;38.03;;;;;;;;;;5030315;28;20075;-93
2022/03/23 00:20:11;;;;;;;42.00;37.92;;;;;;;;;;5053427;28;20051;-92
2022/03/23 00:22:40;;;;;;;42.60;38.05;;;;;;;;;;5052961;28;20114;-93
2022/03/23 00:25:07;;;;;;;44.47;39.78;;;;;;;;;;5050927;28;20063;-91
2022/03/23 00:27:48;;;;;;;43.15;38.80;;;;;;;;;;5051743;28;20413;-91
2022/03/23 00:30:15;;;;;;;43.05;38.55;;;;;;;;;;5035351;28;20052;-93
2022/03/23 00:32:41;;;;;;;43.47;38.83;;;;;;;;;;5033666;28;20049;-92
2022/03/23 00:35:07;;;;;;;43.75;39.50;;;;;;;;;;5054414;28;20048;-93
2022/03/23 00:37:37;;;;;;;42.95;38.55;;;;;;;;;;5032506;28;20102;-92
2022/03/23 00:40:03;;;;;;;43.42;38.90;;;;;;;;;;5052578;28;20043;-92
2022/03/23 00:42:42;;;;;;;42.42;38.03;;;;;;;;;;5042183;28;20045;-92
2022/03/23 00:45:11;;;;;;;42.78;38.50;;;;;;;;;;5044360;28;20041;-93
2022/03/23 00:47:52;;;;;;;42.45;38.15;;;;;;;;;;5048077;28;20029;-92
2022/03/23 00:50:18;;;;;;;43.00;38.58;;;;;;;;;;5032650;28;20139;-93
2022/03/23 00:52:47;;;;;;;43.00;38.67;;;;;;;;;;5052911;28;20048;-93
2022/03/23 00:55:25;;;;;;;42.00;37.80;;;;;;;;;;5052628;28;20452;-93
2022/03/23 00:57:51;;;;;;;42.65;38.15;;;;;;;;;;5036902;28;20094;-91
2022/03/23 01:00:20;;;;;;;40.58;36.45;;;;;;;;;;5067207;28;20028;-92
2022/03/23 01:03:02;;;;;;;40.15;36.22;;;;;;;;;;5055402;28;20025;-92
2022/03/23 01:05:28;;;;;;;39.28;35.25;;;;;;;;;;5058104;28;20032;-91
2022/03/23 01:08:12;;;;;;;39.75;35.78;;;;;;;;;;5043143;28;20047;-92
2022/03/23 01:10:38;;;;;;;38.83;34.95;;;;;;;;;;5052229;28;20049;-92
2022/03/23 01:13:04;;;;;;;40.15;36.05;;;;;;;;;;5042051;28;20124;-92
2022/03/23 01:15:50;;;;;;;37.83;33.92;;;;;;;;;;5032012;28;20545;-92
2022/03/23 01:18:17;;;;;;;39.00;35.00;;;;;;;;;;5049557;28;20037;-92
2022/03/23 01:20:43;;;;;;;38.65;34.70;;;;;;;;;;5050809;28;20045;-93
2022/03/23 01:23:27;;;;;;;37.72;33.85;;;;;;;;;;5025928;28;20037;-92
2022/03/23 01:25:53;;;;;;;38.05;34.22;;;;;;;;;;5031241;28;20041;-93
2022/03/23 01:28:34;;;;;;;36.10;32.33;;;;;;;;;;5054126;28;20048;-92
2022/03/23 01:31:03;;;;;;;36.20;32.60;;;;;;;;;;5046939;28;20044;-93
2022/03/23 01:33:29;;;;;;;37.38;33.33;;;;;;;;;;5053668;28;20048;-92
2022/03/23 01:35:55;;;;;;;36.72;33.08;;;;;;;;;;5029555;28;20078;-91
2022/03/23 01:38:41;;;;;;;35.75;32.15;;;;;;;;;;5052297;28;20041;-91
2022/03/23 01:41:07;;;;;;;36.78;32.92;;;;;;;;;;5052617;28;20076;-92
2022/03/23 01:43:33;;;;;;;34.90;31.50;;;;;;;;;;5024217;28;20477;-92
2022/03/23 01:46:12;;;;;;;35.20;31.60;;;;;;;;;;5046107;28;20178;-92
2022/03/23 01:48:38;;;;;;;35.78;32.10;;;;;;;;;;5049805;28;20041;-92
2022/03/23 01:51:23;;;;;;;34.90;31.42;;;;;;;;;;5063590;28;20056;-92
2022/03/23 01:53:49;;;;;;;35.95;32.38;;;;;;;;;;5057311;28;20045;-92
2022/03/23 01:56:15;;;;;;;36.28;32.35;;;;;;;;;;5032117;28;20044;-92
2022/03/23 01:58:44;;;;;;;36.17;32.47;;;;;;;;;;5035034;28;20084;-92
2022/03/23 02:01:10;;;;;;;36.45;32.70;;;;;;;;;;5038275;28;20037;-92
2022/03/23 02:03:39;;;;;;;36.42;32.75;;;;;;;;;;5052242;28;20068;-91
2022/03/23 02:06:17;;;;;;;37.63;33.55;;;;;;;;;;5054322;28;20405;-92
2022/03/23 02:08:43;;;;;;;34.58;31.15;;;;;;;;;;5032557;28;20136;-91
2022/03/23 02:11:36;;;;;;;38.45;34.42;;;;;;;;;;5043435;28;20041;-91
2022/03/23 02:14:03;;;;;;;37.45;33.70;;;;;;;;;;5031617;28;20049;-92
2022/03/23 02:16:42;;;;;;;38.00;34.17;;;;;;;;;;5047782;28;20080;-92
2022/03/23 02:19:08;;;;;;;38.15;34.25;;;;;;;;;;5028099;28;20041;-93
2022/03/23 02:21:37;;;;;;;38.83;34.83;;;;;;;;;;5051815;28;20322;-92
2022/03/23 02:24:04;;;;;;;40.53;36.25;;;;;;;;;;5025744;28;20469;-91
2022/03/23 02:26:44;;;;;;;39.17;35.15;;;;;;;;;;5037840;28;20087;-92
2022/03/23 02:29:10;;;;;;;40.05;35.95;;;;;;;;;;5048217;28;20441;-92
2022/03/23 02:31:37;;;;;;;41.60;37.13;;;;;;;;;;5038386;28;20045;-91
2022/03/23 02:34:03;;;;;;;41.10;36.83;;;;;;;;;;5055506;28;20037;-92
2022/03/23 02:36:47;;;;;;;41.33;37.08;;;;;;;;;;5067189;28;20033;-92
2022/03/23 02:39:13;;;;;;;42.90;38.42;;;;;;;;;;5061005;28;20098;-92
2022/03/23 02:41:39;;;;;;;42.50;37.78;;;;;;;;;;5039530;28;20041;-92
2022/03/23 02:44:21;;;;;;;41.85;37.55;;;;;;;;;;5058244;28;20075;-92
2022/03/23 02:46:47;;;;;;;41.35;37.05;;;;;;;;;;5035256;28;20041;-91
2022/03/23 02:49:16;;;;;;;42.88;38.38;;;;;;;;;;5064522;28;20044;-91
2022/03/23 02:51:49;;;;;;;43.17;38.53;;;;;;;;;;5058327;28;20490;-92
2022/03/23 03:03:01;;;;;;;44.67;40.00;;;;;;;;;;5028178;28;20389;-92
2022/03/23 03:05:30;;;;;;;44.88;40.15;;;;;;;;;;5034551;28;20052;-92
2022/03/23 03:10:41;;;;;;;45.50;40.70;;;;;;;;;;5054717;28;20033;-91
2022/03/23 03:13:07;;;;;;;44.53;39.85;;;;;;;;;;5055873;28;20036;-92
2022/03/23 03:15:43;;;;;;;46.60;41.33;;;;;;;;;;5069724;28;20060;-92
2022/03/23 03:18:09;;;;;;;43.97;39.47;;;;;;;;;;5040882;28;20067;-92
2022/03/23 03:20:35;;;;;;;44.70;40.13;;;;;;;;;;5037168;28;20052;-91
2022/03/23 03:23:01;;;;;;;43.25;38.75;;;;;;;;;;5055249;28;20032;-92
2022/03/23 03:25:28;;;;;;;46.30;41.28;;;;;;;;;;5036681;28;20064;-92
2022/03/23 03:27:54;;;;;;;44.55;39.95;;;;;;;;;;5031722;28;20346;-92
2022/03/23 03:30:20;;;;;;;45.25;40.45;;;;;;;;;;5038396;28;20055;-92
2022/03/23 03:32:46;;;;;;;45.50;40.72;;;;;;;;;;5055518;28;20164;-92
2022/03/23 03:35:13;;;;;;;48.17;43.08;;;;;;;;;;5055964;28;20107;-92
2022/03/23 03:37:39;;;;;;;46.60;41.75;;;;;;;;;;5055869;28;20045;-89
2022/03/23 03:40:06;;;;;;;45.95;41.13;;;;;;;;;;5042637;28;20049;-91
2022/03/23 03:42:35;;;;;;;45.80;40.92;;;;;;;;;;5052658;28;20382;-90
2022/03/23 03:45:04;;;;;;;45.60;40.80;;;;;;;;;;5049319;28;20378;-91
2022/03/23 03:47:42;;;;;;;46.80;41.85;;;;;;;;;;5038770;28;20040;-91
2022/03/23 03:50:09;;;;;;;45.58;40.65;;;;;;;;;;5033257;28;22170;-91
2022/03/23 03:52:36;;;;;;;45.75;40.47;;;;;;;;;;5049380;28;20041;-91
2022/03/23 03:55:12;;;;;;;45.90;41.08;;;;;;;;;;5056005;28;20053;-91
2022/03/23 03:57:38;;;;;;;46.95;41.95;;;;;;;;;;5042860;28;20358;-91
2022/03/23 04:00:07;;;;;;;47.15;41.75;;;;;;;;;;5047241;28;20045;-90
2022/03/23 04:02:33;;;;;;;46.67;41.85;;;;;;;;;;5036933;28;20041;-91
2022/03/23 04:04:59;;;;;;;47.17;41.75;;;;;;;;;;5056141;28;20084;-91
2022/03/23 04:07:25;;;;;;;47.80;42.78;;;;;;;;;;5043698;28;20044;-91
2022/03/23 04:09:51;;;;;;;47.42;41.92;;;;;;;;;;5051595;28;20113;-91
2022/03/23 04:12:17;;;;;;;45.65;40.75;;;;;;;;;;5051257;28;20119;-92
2022/03/23 04:14:43;;;;;;;48.30;43.22;;;;;;;;;;5045391;28;20045;-93
2022/03/23 04:17:09;;;;;;;46.78;41.78;;;;;;;;;;5053100;28;20501;-93
2022/03/23 04:19:35;;;;;;;48.35;43.15;;;;;;;;;;5045989;28;20188;-91
2022/03/23 04:22:01;;;;;;;48.40;43.20;;;;;;;;;;5037288;28;20042;-92
2022/03/23 04:24:27;;;;;;;46.63;41.58;;;;;;;;;;5049547;28;20076;-92
2022/03/23 04:26:53;;;;;;;48.58;43.38;;;;;;;;;;5037709;22;20691;-92
2022/03/23 04:29:24;;;;;;;50.60;45.08;;;;;;;;;;5007281;28;20516;-92
2022/03/23 04:31:50;;;;;;;48.42;43.20;;;;;;;;;;5004064;28;20058;-92
2022/03/23 04:34:16;;;;;;;49.58;44.38;;;;;;;;;;4999143;28;20065;-92
2022/03/23 04:36:42;;;;;;;51.13;45.58;;;;;;;;;;5010846;28;20050;-92
2022/03/23 04:39:08;;;;;;;49.58;44.33;;;;;;;;;;5024963;28;20042;-93
2022/03/23 04:41:34;;;;;;;48.65;43.35;;;;;;;;;;5013333;28;20061;-92
2022/03/23 04:44:18;;;;;;;50.08;43.85;;;;;;;;;;5004358;28;20482;-92
2022/03/23 04:46:47;;;;;;;48.03;43.03;;;;;;;;;;5019828;28;20096;-92
2022/03/23 04:49:14;;;;;;;48.45;43.40;;;;;;;;;;5023197;28;20084;-92
2022/03/23 04:51:40;;;;;;;48.60;42.92;;;;;;;;;;5000246;28;20078;-92
2022/03/23 04:54:08;;;;;;;49.42;42.63;;;;;;;;;;5046687;28;20037;-94
2022/03/23 04:56:34;;;;;;;48.40;42.78;;;;;;;;;;5036138;28;20041;-90
2022/03/23 04:59:01;;;;;;;50.28;44.15;;;;;;;;;;5021482;28;20048;-91
2022/03/23 05:01:27;;;;;;;50.03;44.10;;;;;;;;;;5001813;28;20096;-92
2022/03/23 05:03:53;;;;;;;48.53;43.45;;;;;;;;;;4998098;28;20057;-92
2022/03/23 05:06:20;;;;;;;48.05;42.95;;;;;;;;;;5003456;28;20056;-91
2022/03/23 05:08:46;;;;;;;48.05;42.83;;;;;;;;;;5021771;28;20037;-92
2022/03/23 05:11:12;;;;;;;47.00;41.72;;;;;;;;;;5005927;28;20052;-91
2022/03/23 05:13:38;;;;;;;48.05;42.78;;;;;;;;;;4998055;28;20108;-91
2022/03/23 05:16:04;;;;;;;50.03;43.15;;;;;;;;;;5006903;28;20084;-91
2022/03/23 05:18:30;;;;;;;49.67;43.17;;;;;;;;;;5033809;28;20030;-91
2022/03/23 05:20:56;;;;;;;46.60;41.58;;;;;;;;;;5036191;28;20029;-90
2022/03/23 05:23:24;;;;;;;47.05;42.05;;;;;;;;;;5038763;28;20061;-90
2022/03/23 05:25:53;;;;;;;49.30;43.97;;;;;;;;;;5004751;28;20054;-91
2022/03/23 05:28:19;;;;;;;51.90;44.88;;;;;;;;;;5010062;28;20121;-90
2022/03/23 05:30:45;;;;;;;49.75;43.88;;;;;;;;;;4996734;28;20034;-91
2022/03/23 05:33:12;;;;;;;48.08;43.05;;;;;;;;;;5010563;28;20452;-91
2022/03/23 05:35:38;;;;;;;47.30;42.25;;;;;;;;;;5015609;28;20068;-92
2022/03/23 05:38:04;;;;;;;49.22;43.90;;;;;;;;;;5001106;28;20042;-90
2022/03/23 05:40:30;;;;;;;47.33;42.35;;;;;;;;;;5015429;28;20042;-90
2022/03/23 05:42:56;;;;;;;49.70;42.97;;;;;;;;;;5021943;28;20022;-90
2022/03/23 05:45:22;;;;;;;49.92;41.97;;;;;;;;;;5031241;28;20022;-91
2022/03/23 05:47:53;;;;;;;48.88;43.05;;;;;;;;;;5006749;28;20042;-92
2022/03/23 05:50:21;;;;;;;51.90;43.58;;;;;;;;;;5011085;28;20046;-92
2022/03/23 05:52:47;;;;;;;51.75;44.78;;;;;;;;;;5008771;28;20124;-93
2022/03/23 05:55:13;;;;;;;49.80;44.33;;;;;;;;;;4994630;28;20054;-91
2022/03/23 05:57:39;;;;;;;48.83;43.35;;;;;;;;;;5007842;28;20125;-91
2022/03/23 06:00:11;;;;;;;48.97;43.33;;;;;;;;;;4995215;28;20081;-92
2022/03/23 06:02:37;;;;;;;48.83;43.45;;;;;;;;;;5001615;28;20057;-92
2022/03/23 06:05:03;;;;;;;47.72;42.72;;;;;;;;;;5000499;28;20548;-92
2022/03/23 06:07:29;;;;;;;51.88;45.00;;;;;;;;;;4995108;28;20089;-90
2022/03/23 06:09:55;;;;;;;48.15;43.03;;;;;;;;;;5004384;28;20030;-91
2022/03/23 06:12:22;;;;;;;49.78;43.10;;;;;;;;;;5019160;28;20047;-91
2022/03/23 06:14:48;;;;;;;55.85;49.55;;;;;;;;;;5014380;28;20057;-91
2022/03/23 06:17:14;;;;;;;51.22;45.67;;;;;;;;;;5004045;28;20126;-91
2022/03/23 06:19:40;;;;;;;50.00;44.78;;;;;;;;;;5003347;28;20066;-94
2022/03/23 06:22:06;;;;;;;52.10;45.50;;;;;;;;;;5006445;28;20073;-94
2022/03/23 06:24:35;;;;;;;51.38;45.78;;;;;;;;;;5006777;28;20092;-93
2022/03/23 06:27:10;;;;;;;51.25;45.13;;;;;;;;;;5025539;28;20057;-92
2022/03/23 06:29:37;;;;;;;48.20;42.97;;;;;;;;;;5004163;28;20046;-93
2022/03/23 06:32:21;;;;;;;51.15;44.72;;;;;;;;;;5027501;28;20405;-95
2022/03/23 06:34:50;;;;;;;50.78;44.25;;;;;;;;;;5016734;28;20445;-91
2022/03/23 06:37:19;;;;;;;53.95;44.42;;;;;;;;;;5030369;28;20037;-91
2022/03/23 06:39:53;;;;;;;51.58;45.97;;;;;;;;;;5021618;28;20470;-92
2022/03/23 06:42:20;;;;;;;50.53;45.08;;;;;;;;;;5005156;28;20050;-91
2022/03/23 06:45:04;;;;;;;51.67;45.50;;;;;;;;;;5016585;28;20042;-92
2022/03/23 06:47:31;;;;;;;50.35;44.97;;;;;;;;;;5015480;28;20049;-93
2022/03/23 06:50:03;;;;;;;51.25;45.78;;;;;;;;;;5002772;28;20494;-91
2022/03/23 06:52:29;;;;;;;49.50;44.10;;;;;;;;;;5020820;28;20050;-92
2022/03/23 06:54:55;;;;;;;50.97;45.45;;;;;;;;;;5023602;28;20038;-92
2022/03/23 06:57:40;;;;;;;50.90;45.03;;;;;;;;;;5036192;28;20033;-93
2022/03/23 07:03:19;;;;;;;52.20;46.50;;;;;;;;;;5004997;28;20080;-93
2022/03/23 07:05:56;;;;;;;50.10;44.42;;;;;;;;;;5019424;28;20049;-93
2022/03/23 07:11:16;;;;;;;50.60;45.10;;;;;;;;;;5029753;28;20052;-92
2022/03/23 07:14:01;;;;;;;51.58;44.03;;;;;;;;;;5019809;28;20125;-93
2022/03/23 07:16:28;;;;;;;53.47;47.10;;;;;;;;;;5034368;28;20045;-93
2022/03/23 07:19:24;;;;;;;49.25;43.88;;;;;;;;;;5077266;22;20048;-93
2022/03/23 07:22:34;;;;;;;49.72;43.72;;;;;;;;;;5057933;28;20037;-92
2022/03/23 07:25:07;;;;;;;50.53;43.03;;;;;;;;;;5076064;28;20032;-94
2022/03/23 07:27:33;;;;;;;48.70;43.28;;;;;;;;;;5046912;28;20190;-93
2022/03/23 07:30:17;;;;;;;51.97;42.97;;;;;;;;;;5075208;28;20044;-93
2022/03/23 07:33:04;;;;;;;47.83;42.78;;;;;;;;;;5062798;28;20488;-92
2022/03/23 07:35:30;;;;;;;47.80;42.53;;;;;;;;;;4982626;28;20102;-92
2022/03/23 07:37:56;;;;;;;49.20;41.72;;;;;;;;;;4997831;28;20035;-92
2022/03/23 07:40:36;;;;;;;45.90;40.95;;;;;;;;;;5033678;22;20305;-92
2022/03/23 07:43:23;;;;;;;47.72;42.65;;;;;;;;;;5046501;28;20045;-93
2022/03/23 07:45:58;;;;;;;47.33;42.20;;;;;;;;;;5059059;28;20120;-93
2022/03/23 07:48:40;;;;;;;47.03;40.63;;;;;;;;;;5058390;28;20041;-93
2022/03/23 07:51:09;;;;;;;43.47;38.58;;;;;;;;;;5041707;28;20052;-94
2022/03/23 07:53:48;;;;;;;45.63;40.72;;;;;;;;;;5058910;28;20044;-93
2022/03/23 07:56:33;;;;;;;44.40;39.30;;;;;;;;;;5038495;28;20053;-94
2022/03/23 07:59:11;;;;;;;46.53;40.00;;;;;;;;;;5058798;28;20041;-94
2022/03/23 08:01:37;;;;;;;44.97;40.13;;;;;;;;;;5104207;22;20128;-94
2022/03/23 08:04:12;;;;;;;43.95;39.28;;;;;;;;;;5061446;28;20047;-94
2022/03/23 08:06:38;;;;;;;48.20;39.47;;;;;;;;;;5059337;28;20113;-95
2022/03/23 08:09:07;;;;;;;42.65;38.03;;;;;;;;;;5075377;28;20519;-94
2022/03/23 08:11:54;;;;;;;42.17;37.60;;;;;;;;;;5058571;28;20053;-94
2022/03/23 08:14:26;;;;;;;41.67;37.17;;;;;;;;;;5042374;28;20045;-95
2022/03/23 08:16:52;;;;;;;39.60;35.35;;;;;;;;;;5040430;28;20045;-94
2022/03/23 08:19:36;;;;;;;40.83;36.63;;;;;;;;;;5063900;28;20051;-95
2022/03/23 08:22:02;;;;;;;39.72;34.83;;;;;;;;;;5071028;28;20123;-92
2022/03/23 08:24:48;;;;;;;38.75;34.42;;;;;;;;;;5083194;28;20044;-95
2022/03/23 08:27:24;;;;;;;36.65;32.88;;;;;;;;;;5082100;28;20032;-95
2022/03/23 08:29:50;;;;;;;37.55;33.55;;;;;;;;;;5084826;28;20555;-94
2022/03/23 08:32:27;;;;;;;;;;;;;;;;;;;;;
2022/03/23 08:35:05;;;;;;;38.25;34.10;;;;;;;;;;5017340;28;20126;-95
2022/03/23 08:37:49;;;;;;;40.10;35.33;;;;;;;;;;5000786;28;20078;-95
2022/03/23 08:40:16;;;;;;;40.08;35.00;;;;;;;;;;4985751;28;20054;-95
2022/03/23 08:42:42;;;;;;;39.95;35.58;;;;;;;;;;4974404;28;20122;-95
2022/03/23 08:45:55;;;;;;;39.13;35.10;;;;;;;;;;4985534;28;20058;-96
2022/03/23 08:48:28;;;;;;;41.00;36.70;;;;;;;;;;4943995;28;20059;-95
2022/03/23 08:50:54;;;;;;;41.47;37.20;;;;;;;;;;4987267;28;20341;-96
2022/03/23 08:53:52;;;;;;;40.83;36.45;;;;;;;;;;4982016;28;20105;-95
2022/03/23 08:56:37;;;;;;;40.70;36.28;;;;;;;;;;4942349;29;20091;-95
2022/03/23 08:59:03;;;;;;;38.95;34.88;;;;;;;;;;4962669;28;20050;-94
2022/03/23 09:01:29;;;;;;;39.20;34.90;;;;;;;;;;4985887;28;20434;-95
2022/03/23 09:04:20;;;;;;;36.25;32.42;;;;;;;;;;4990416;28;20049;-93
2022/03/23 09:07:01;;;;;;;38.80;34.75;;;;;;;;;;5011853;28;20057;-93
2022/03/23 09:09:27;;;;;;;41.88;33.78;;;;;;;;;;5015649;28;20195;-91
2022/03/23 09:11:53;;;;;;;37.72;33.90;;;;;;;;;;5013260;28;20400;-93
2022/03/23 09:14:32;;;;;;;37.10;33.10;;;;;;;;;;4983656;28;20061;-92
2022/03/23 09:16:58;;;;;;;37.63;33.83;;;;;;;;;;5052408;28;20051;-93
2022/03/23 09:19:33;;;;;;;39.40;34.80;;;;;;;;;;5036549;28;20038;-92
2022/03/23 09:21:59;;;;;;;35.97;32.20;;;;;;;;;;5037774;28;20057;-94
2022/03/23 09:24:28;;;;;;;35.53;30.92;;;;;;;;;;5042891;28;20049;-94
2022/03/23 09:26:55;;;;;;;34.97;31.23;;;;;;;;;;5056105;28;20080;-93
2022/03/23 09:29:31;;;;;;;;;;;;;;;;;;;;;
2022/03/23 09:32:12;;;;;;;35.92;32.22;;;;;;;;;;5056062;28;20116;-88
2022/03/23 09:34:52;;;;;;;37.13;33.13;;;;;;;;;;5070193;28;20032;-93
2022/03/23 09:40:13;;;;;;;;;;;;;;;;;;5048646;28;20059;-92
2022/03/23 09:42:40;;;;;;;34.83;29.38;;;;;;;;;;5037804;28;19971;-92
2022/03/23 09:48:26;;;;;;;31.30;27.88;;;;;;;;;;5042383;28;20099;-93
2022/03/23 09:51:09;;;;;;;32.33;28.85;;;;;;;;;;5053276;28;20071;-94
2022/03/23 09:53:35;;;;;;;29.70;26.05;;;;;;;;;;5057047;28;20060;-93
2022/03/23 09:56:16;;;;;;;28.27;25.38;;;;;;;;;;5070557;28;20036;-92
2022/03/23 09:58:42;;;;;;;29.08;25.20;;;;;;;;;;5069988;28;20362;-93
2022/03/23 10:01:27;;;;;;;28.65;24.70;;;;;;;;;;5054484;28;20058;-93
2022/03/23 10:10:47;;;;;;;27.55;24.13;;;;;;;;;;5039168;28;20067;-92
2022/03/23 10:13:17;;;;;;;27.38;24.58;;;;;;;;;;5050845;28;20064;-93
2022/03/23 10:16:05;;;;;;;25.10;22.55;;;;;;;;;;5036717;28;20481;-93
2022/03/23 10:18:52;;;;;;;25.00;21.88;;;;;;;;;;5054403;28;20094;-93
2022/03/23 10:21:19;;;;;;;24.90;21.08;;;;;;;;;;5053950;28;20059;-92
2022/03/23 10:24:03;;;;;;;23.25;20.85;;;;;;;;;;5047757;28;20041;-93
2022/03/23 10:26:30;;;;;;;23.63;21.08;;;;;;;;;;5035574;28;20556;-94
2022/03/23 10:29:19;;;;;;;22.75;19.92;;;;;;;;;;5046260;28;20120;-94
2022/03/23 10:31:55;;;;;;;;;;;;;;;;;;;;;
2022/03/23 10:38:11;;;;;;;23.63;18.63;;;;;;;;;;5052958;28;20400;-94
2022/03/23 10:40:56;;;;;;;20.92;17.63;;;;;;;;;;5057817;28;20077;-94
2022/03/23 10:43:47;;;;;;;20.23;17.27;;;;;;;;;;5050668;28;20485;-94
2022/03/23 10:46:13;;;;;;;21.98;19.23;;;;;;;;;;5048394;28;20037;-95
2022/03/23 10:49:09;;;;;;;21.02;17.73;;;;;;;;;;5057700;28;20053;-94
2022/03/23 10:51:36;;;;;;;23.13;18.98;;;;;;;;;;5059416;28;20109;-95
2022/03/23 10:54:18;;;;;;;21.48;18.92;;;;;;;;;;5065152;28;20171;-95
2022/03/23 10:56:44;;;;;;;21.83;18.52;;;;;;;;;;5044483;28;20048;-95
2022/03/23 10:59:27;;;;;;;21.67;19.25;;;;;;;;;;5053920;28;20037;-95
2022/03/23 11:02:22;;;;;;;20.63;18.05;;;;;;;;;;5052948;28;20045;-93
2022/03/23 11:04:50;;;;;;;24.52;20.25;;;;;;;;;;5041958;28;20128;-95
2022/03/23 11:07:39;;;;;;;22.10;19.70;;;;;;;;;;5043425;28;20069;-95
2022/03/23 11:16:27;;;;;;;23.58;19.45;;;;;;;;;;5049516;28;20131;-93
2022/03/23 11:19:08;;;;;;;20.60;18.40;;;;;;;;;;5062783;28;20029;-93
2022/03/23 11:22:06;;;;;;;23.48;20.48;;;;;;;;;;5071457;28;20063;-94
2022/03/23 11:24:50;;;;;;;21.48;19.13;;;;;;;;;;5056378;28;20107;-95
2022/03/23 11:27:18;;;;;;;22.80;19.52;;;;;;;;;;5060885;28;20041;-94
2022/03/23 11:29:46;;;;;;;23.05;19.60;;;;;;;;;;5059874;28;20106;-94
2022/03/23 11:32:29;;;;;;;21.25;18.92;;;;;;;;;;5043834;28;20045;-94
2022/03/23 11:34:58;;;;;;;22.17;19.77;;;;;;;;;;5054987;28;20067;-94
2022/03/23 11:37:38;;;;;;;23.08;18.52;;;;;;;;;;5058269;28;20041;-94
2022/03/23 11:40:23;;;;;;;20.58;17.50;;;;;;;;;;5054608;28;20507;-94
2022/03/23 11:42:58;;;;;;;20.88;17.48;;;;;;;;;;5053823;28;20053;-90
2022/03/23 11:45:25;;;;;;;21.08;18.52;;;;;;;;;;5037667;28;20068;-93
2022/03/23 11:47:58;;;;;;;19.20;17.02;;;;;;;;;;5041628;28;20136;-93
2022/03/23 11:50:43;;;;;;;17.70;15.82;;;;;;;;;;5055471;28;20044;-94
2022/03/23 11:53:18;;;;;;;20.02;16.45;;;;;;;;;;5033189;28;20055;-94
2022/03/23 11:55:51;;;;;;;18.08;15.90;;;;;;;;;;5046214;28;20041;-93
2022/03/23 11:58:38;;;;;;;;;;;;;;;;;;5056082;28;20048;-93
2022/03/23 12:01:08;;;;;;;22.33;15.95;;;;;;;;;;5057001;28;19932;-94
2022/03/23 12:03:55;;;;;;;18.63;15.48;;;;;;;;;;5069317;28;20404;-94
2022/03/23 12:06:39;;;;;;;18.52;15.20;;;;;;;;;;5070598;28;20059;-93
2022/03/23 12:09:05;;;;;;;;;;;;;;;;;;5060349;28;20062;-92
2022/03/23 12:11:51;;;;;;;21.73;19.42;;;;;;;;;;5077872;28;19928;-94
2022/03/23 12:14:23;;;;;;;21.90;16.90;;;;;;;;;;5057712;28;20076;-94
2022/03/23 12:17:08;;;;;;;18.90;16.30;;;;;;;;;;5091001;28;20017;-92
2022/03/23 12:19:59;;;;;;;22.73;20.25;;;;;;;;;;5078003;28;20033;-93
2022/03/23 12:22:34;;;;;;;29.23;25.33;;;;;;;;;;5082498;28;20157;-92
2022/03/23 12:25:20;;;;;;;35.25;31.58;;;;;;;;;;5072922;28;20037;-93
2022/03/23 12:27:47;;;;;;;34.63;31.05;;;;;;;;;;5049239;28;20041;-93
2022/03/23 12:30:28;;;;;;;34.97;31.50;;;;;;;;;;5077439;28;20040;-93
2022/03/23 12:32:57;;;;;;;33.92;30.52;;;;;;;;;;5057452;28;20040;-93
2022/03/23 12:35:39;;;;;;;35.15;31.73;;;;;;;;;;5067219;28;20059;-93
2022/03/23 12:38:31;;;;;;;34.08;30.80;;;;;;;;;;5073560;28;20057;-94
2022/03/23 12:41:05;;;;;;;38.17;34.25;;;;;;;;;;5075835;28;20083;-93
2022/03/23 12:43:46;;;;;;;34.65;31.33;;;;;;;;;;5049703;28;20056;-93
2022/03/23 12:46:32;;;;;;;36.65;33.10;;;;;;;;;;5068603;28;20439;-95
2022/03/23 12:58:01;;;;;;;36.13;32.58;;;;;;;;;;5053684;28;20421;-93
2022/03/23 13:00:31;;;;;;;34.83;31.42;;;;;;;;;;5079862;28;20044;-92
2022/03/23 13:03:06;;;;;;;34.70;31.40;;;;;;;;;;5086613;28;20045;-93
2022/03/23 13:05:52;;;;;;;34.53;30.77;;;;;;;;;;5074272;28;20471;-93
2022/03/23 13:08:27;;;;;;;34.40;31.10;;;;;;;;;;5072249;28;20044;-90
2022/03/23 13:11:20;;;;;;;35.55;32.10;;;;;;;;;;5048652;28;20122;-91
2022/03/23 13:13:49;;;;;;;35.47;31.97;;;;;;;;;;5045291;28;20072;-91
2022/03/23 13:16:34;;;;;;;35.20;31.63;;;;;;;;;;5042924;28;20428;-93
2022/03/23 13:19:17;;;;;;;35.63;31.85;;;;;;;;;;5065727;28;20052;-93
2022/03/23 13:21:46;;;;;;;36.67;32.95;;;;;;;;;;5068868;28;20529;-93
2022/03/23 13:24:12;;;;;;;34.08;30.75;;;;;;;;;;5057978;28;20044;-93
2022/03/23 13:26:58;;;;;;;35.22;31.83;;;;;;;;;;5047067;28;20045;-92
2022/03/23 13:29:28;;;;;;;33.25;30.15;;;;;;;;;;5057426;28;20128;-93
2022/03/23 13:32:07;;;;;;;34.53;31.17;;;;;;;;;;5068634;28;20049;-94
2022/03/23 13:34:38;;;;;;;34.13;30.67;;;;;;;;;;5082246;28;20043;-92
2022/03/23 13:37:19;;;;;;;34.80;31.38;;;;;;;;;;5089590;28;20044;-94
2022/03/23 13:39:48;;;;;;;33.90;30.58;;;;;;;;;;5077300;28;20090;-93
2022/03/23 13:45:06;;;;;;;33.92;30.65;;;;;;;;;;5058869;28;20061;-94
2022/03/23 13:47:51;;;;;;;33.72;30.63;;;;;;;;;;5058810;28;20075;-94
2022/03/23 13:50:17;;;;;;;32.88;29.55;;;;;;;;;;5077808;28;20044;-93
2022/03/23 13:53:02;;;;;;;31.02;27.83;;;;;;;;;;5056075;28;20084;-91
2022/03/23 13:55:29;;;;;;;30.88;27.88;;;;;;;;;;5071555;28;20063;-91
2022/03/23 13:57:56;;;;;;;31.60;28.42;;;;;;;;;;5071026;28;20024;-91
2022/03/23 14:00:23;;;;;;;30.17;27.33;;;;;;;;;;5067000;28;20091;-90
2022/03/23 14:02:51;;;;;;;31.13;28.23;;;;;;;;;;5055624;28;20052;-88
2022/03/23 14:05:25;;;;;;;29.48;26.83;;;;;;;;;;5054850;28;20044;-90
2022/03/23 14:08:05;;;;;;;29.92;26.85;;;;;;;;;;5062839;28;20131;-88
2022/03/23 14:10:34;;;;;;;29.92;27.02;;;;;;;;;;5054363;28;20052;-88
2022/03/23 14:13:03;;;;;;;28.55;25.75;;;;;;;;;;5070012;28;20397;-89
2022/03/23 14:15:51;;;;;;;27.55;24.75;;;;;;;;;;5042321;28;20099;-89
2022/03/23 14:18:31;;;;;;;28.55;25.77;;;;;;;;;;5068213;28;20056;-89
2022/03/23 14:20:58;;;;;;;29.25;26.45;;;;;;;;;;5072054;28;20060;-89
2022/03/23 14:23:28;;;;;;;27.92;25.35;;;;;;;;;;5062677;28;20048;-89
2022/03/23 14:26:14;;;;;;;26.20;23.70;;;;;;;;;;5050706;28;20040;-90
2022/03/23 14:31:18;;;;;;;26.25;23.95;;;;;;;;;;5023661;22;20470;-91
2022/03/23 14:34:05;;;;;;;27.42;24.77;;;;;;;;;;4999442;28;20030;-91
2022/03/23 14:36:35;;;;;;;26.42;24.13;;;;;;;;;;4982329;28;20069;-91
2022/03/23 14:41:58;;;;;;;25.40;23.15;;;;;;;;;;5025309;28;20046;-91
2022/03/23 14:44:34;;;;;;;25.70;23.55;;;;;;;;;;5007775;28;20498;-89
2022/03/23 14:47:02;;;;;;;26.20;23.90;;;;;;;;;;5003880;28;20050;-93
2022/03/23 14:49:45;;;;;;;25.55;23.35;;;;;;;;;;4989765;28;20112;-90
2022/03/23 14:52:12;;;;;;;25.60;23.23;;;;;;;;;;5003236;28;20048;-92
2022/03/23 14:54:54;;;;;;;24.45;22.33;;;;;;;;;;4996333;28;20187;-90
2022/03/23 14:57:22;;;;;;;25.73;23.48;;;;;;;;;;4999630;28;20486;-92
2022/03/23 14:59:52;;;;;;;25.08;22.98;;;;;;;;;;5004422;28;20042;-89
2022/03/23 15:02:34;;;;;;;24.67;22.58;;;;;;;;;;5003570;28;20054;-88
2022/03/23 15:13:15;;;;;;;26.25;23.85;;;;;;;;;;5007217;28;20050;-90
2022/03/23 15:13:43;;;;;;;25.48;23.08;;;;;;;;;;5005779;28;20102;-94
2022/03/23 15:16:27;;;;;;;25.80;23.48;;;;;;;;;;5007557;28;20069;-89
2022/03/23 15:18:53;;;;;;;25.92;23.65;;;;;;;;;;4997381;28;20449;-94
2022/03/23 15:21:38;;;;;;;27.55;24.98;;;;;;;;;;5089369;23;20065;-92
2022/03/23 15:24:05;;;;;;;26.65;24.35;;;;;;;;;;5054237;28;20052;-93
2022/03/23 15:26:31;;;;;;;25.80;23.27;;;;;;;;;;5045214;28;20071;-94
2022/03/23 15:29:13;;;;;;;24.80;22.55;;;;;;;;;;5076601;28;20079;-96
2022/03/23 15:32:01;;;;;;;26.38;24.10;;;;;;;;;;5054038;28;20048;-95
2022/03/23 15:34:28;;;;;;;27.45;25.05;;;;;;;;;;5073397;28;20055;-89
2022/03/23 15:36:54;;;;;;;26.02;23.63;;;;;;;;;;5055244;28;20443;-89
2022/03/23 15:39:39;;;;;;;26.90;24.70;;;;;;;;;;5073823;28;20400;-91
2022/03/23 15:42:15;;;;;;;;;;;;;;;;;;;;;
2022/03/23 15:44:47;;;;;;;27.52;25.17;;;;;;;;;;5058855;28;20057;-92
2022/03/23 15:47:13;;;;;;;27.63;25.33;;;;;;;;;;5071753;28;20070;-90
2022/03/23 15:49:43;;;;;;;28.13;25.73;;;;;;;;;;5070046;28;20048;-88
2022/03/23 15:52:22;;;;;;;27.98;25.58;;;;;;;;;;5062680;28;20101;-88
2022/03/23 15:54:48;;;;;;;28.33;25.98;;;;;;;;;;5062817;28;20064;-92
2022/03/23 15:57:29;;;;;;;27.17;24.92;;;;;;;;;;5077283;28;20040;-94